Time;durP1;ratioP1;P1;durP2;ratioP2;P2;SDS_P1;SDS_P2;PMS_P1;PMS_P2;Temp;Humidity;BMP_temperature;BMP_pressure;BME280_temperature;BME280_humidity;BME280_pressure;Samples;Min_cycle;Max_cycle;Signal;HPM_P1;HPM_P2
2021/11/02 00:01:52;;;;;;;;;0.00;0.00;;;;;10.85;68.25;99671.50;5061697;28;45337;-82
2021/11/02 00:04:20;;;;;;;;;0.00;0.00;;;;;10.34;67.95;99599.91;5062912;28;46076;-83
2021/11/02 00:06:45;;;;;;;;;0.00;0.00;;;;;10.85;67.81;99675.84;5063063;28;45323;-80
2021/11/02 00:09:16;;;;;;;;;0.00;0.00;;;;;10.52;67.79;99613.66;5061895;28;45313;-82
2021/11/02 00:11:42;;;;;;;;;0.00;0.00;;;;;10.95;67.85;99694.81;5062025;28;45489;-83
2021/11/02 00:14:10;;;;;;;;;0.00;0.00;;;;;10.84;68.02;99692.34;5065658;28;46444;-82
2021/11/02 00:16:40;;;;;;;;;0.00;0.00;;;;;10.64;68.11;99665.63;5066328;28;45360;-82
2021/11/02 00:19:07;;;;;;;;;0.00;0.00;;;;;10.70;68.14;99656.00;5048671;28;45400;-82
2021/11/02 00:21:36;;;;;;;;;0.00;0.00;;;;;10.66;68.19;99651.72;5064845;28;45349;-82
2021/11/02 00:24:14;;;;;;;;;0.00;0.00;;;;;10.73;68.09;99669.88;5047938;28;45535;-82
2021/11/02 00:26:40;;;;;;;;;0.00;0.00;;;;;10.70;68.04;99656.00;5058033;28;45488;-83
2021/11/02 00:29:06;;;;;;;;;0.00;0.00;;;;;10.44;68.36;99621.50;5055656;28;45486;-82
2021/11/02 00:31:31;;;;;;;;;0.00;0.00;;;;;10.62;68.33;99653.47;5045342;28;45325;-83
2021/11/02 00:33:57;;;;;;;;;0.00;0.00;;;;;10.73;68.56;99675.09;5064315;28;45651;-82
2021/11/02 00:36:22;;;;;;;;;0.00;0.00;;;;;10.24;68.19;99603.47;5062268;28;45337;-82
2021/11/02 00:38:48;;;;;;;;;0.00;0.00;;;;;10.28;68.70;99618.16;5046630;28;45388;-82
2021/11/02 00:41:13;;;;;;;;;0.00;0.00;;;;;10.01;68.82;99579.38;5063942;28;45271;-82
2021/11/02 00:43:38;;;;;;;;;0.00;0.00;;;;;10.56;68.82;99650.94;5044639;28;48100;-82
2021/11/02 00:46:05;;;;;;;;;0.00;0.00;;;;;10.67;68.96;99656.03;5062561;28;45315;-82
2021/11/02 00:48:30;;;;;;;;;0.00;0.00;;;;;10.43;68.71;99631.91;5062538;28;45416;-82
2021/11/02 00:50:58;;;;;;;;;0.00;0.00;;;;;10.61;68.96;99660.44;5053319;28;45472;-80
2021/11/02 00:53:24;;;;;;;;;0.00;0.00;;;;;10.20;69.36;99597.41;5042228;28;46734;-82
2021/11/02 00:55:50;;;;;;;;;0.00;0.00;;;;;10.61;69.12;99652.63;5037677;28;45407;-80
2021/11/02 00:58:16;;;;;;;;;0.00;0.00;;;;;10.54;69.33;99648.34;5041928;28;45480;-80
2021/11/02 01:00:43;;;;;;;;;0.00;0.00;;;;;10.35;69.49;99613.78;5042830;28;45477;-81
2021/11/02 01:03:09;;;;;;;;;0.00;0.00;;;;;10.33;69.78;99621.63;5042035;28;45300;-80
2021/11/02 01:05:35;;;;;;;;;0.00;0.00;;;;;10.42;69.87;99646.69;5040594;28;45419;-81
2021/11/02 01:08:02;;;;;;;;;0.00;0.00;;;;;10.38;69.56;99626.75;5042328;28;45357;-81
2021/11/02 01:10:29;;;;;;;;;0.00;0.00;;;;;10.19;69.55;99600.03;5062873;28;45505;-82
2021/11/02 01:12:54;;;;;;;;;0.00;0.00;;;;;10.24;69.54;99614.75;5061934;28;45622;-82
2021/11/02 01:15:23;;;;;;;;;0.00;0.00;;;;;10.11;69.92;99610.50;5044249;28;45401;-82
2021/11/02 01:17:49;;;;;;;;;0.00;0.00;;;;;10.10;70.19;99609.63;5062818;28;45287;-82
2021/11/02 01:20:15;;;;;;;;;0.00;0.00;;;;;10.04;70.10;99601.88;5074562;28;45331;-81
2021/11/02 01:22:43;;;;;;;;;0.00;0.00;;;;;10.11;70.35;99621.75;5079782;28;46450;-81
2021/11/02 01:25:10;;;;;;;;;0.25;0.00;;;;;10.22;70.42;99624.28;5061390;28;45428;-82
2021/11/02 01:27:36;;;;;;;;;0.00;0.00;;;;;10.30;70.24;99631.16;5063647;28;45482;-82
2021/11/02 01:30:05;;;;;;;;;0.00;0.00;;;;;9.54;70.33;99516.47;5082821;28;45331;-82
2021/11/02 01:32:31;;;;;;;;;0.00;0.00;;;;;10.24;70.17;99611.28;5082187;28;46417;-82
2021/11/02 01:34:56;;;;;;;;;0.00;0.00;;;;;10.32;70.29;99635.47;5082208;28;45381;-82
2021/11/02 01:37:22;;;;;;;;;0.00;0.00;;;;;10.37;70.20;99638.91;5080716;28;45541;-82
2021/11/02 01:39:47;;;;;;;;;0.00;0.00;;;;;9.50;70.38;99497.44;5082726;28;45424;-82
2021/11/02 01:42:13;;;;;;;;;0.00;0.00;;;;;10.31;70.53;99635.47;5082271;28;46360;-82
2021/11/02 01:45:21;;;;;;;;;0.00;0.00;;;;;9.65;70.60;99533.72;5063706;28;45414;-82
2021/11/02 01:47:48;;;;;;;;;0.00;0.00;;;;;9.92;70.71;99586.38;5041101;28;45447;-82
2021/11/02 01:50:14;;;;;;;;;0.00;0.00;;;;;9.67;70.86;99551.00;5082291;28;45349;-82
2021/11/02 01:52:41;;;;;;;;;0.00;0.00;;;;;10.04;70.82;99606.25;5063542;28;48765;-82
2021/11/02 01:55:11;;;;;;;;;0.00;0.00;;;;;9.80;70.85;99576.94;5081484;28;45378;-82
2021/11/02 01:57:36;;;;;;;;;0.00;0.00;;;;;10.03;71.09;99618.38;5080942;28;45472;-82
2021/11/02 02:00:07;;;;;;;;;0.00;0.00;;;;;10.20;71.18;99630.38;5082483;28;45376;-82
2021/11/02 02:02:49;;;;;;;;;0.00;0.00;;;;;9.43;70.86;99513.94;5080541;28;47636;-82
2021/11/02 02:05:35;;;;;;;;;1.50;0.00;;;;;10.01;71.36;99625.28;5063692;28;45451;-82
2021/11/02 02:09:02;;;;;;;;;0.00;0.00;;;;;10.14;71.48;99637.34;5081797;28;45422;-82
2021/11/02 02:11:30;;;;;;;;;0.00;0.00;;;;;10.13;71.36;99633.03;4963198;28;45454;-82
2021/11/02 02:14:14;;;;;;;;;0.00;0.00;;;;;10.07;71.71;99637.38;4979080;28;45530;-82
2021/11/02 02:16:44;;;;;;;;;0.00;0.00;;;;;9.97;71.79;99623.59;5056541;28;45517;-82
2021/11/02 02:19:30;;;;;;;;;0.00;0.00;;;;;10.04;71.33;99638.28;5081895;28;45402;-82
2021/11/02 02:22:08;;;;;;;;;0.00;0.00;;;;;9.93;72.00;99622.78;5082051;28;45406;-82
2021/11/02 02:24:56;;;;;;;;;0.00;0.00;;;;;10.06;71.72;99633.06;5081157;28;45560;-82
2021/11/02 02:27:41;;;;;;;;;0.00;0.00;;;;;10.07;71.46;99638.25;5081328;28;45543;-82
2021/11/02 02:30:17;;;;;;;;;0.00;0.00;;;;;10.09;71.58;99644.34;5081698;28;45443;-82
2021/11/02 02:32:48;;;;;;;;;0.00;0.00;;;;;10.01;71.67;99628.78;5081473;28;45546;-82
2021/11/02 02:35:18;;;;;;;;;0.00;0.00;;;;;9.55;71.39;99533.78;5063111;28;46179;-81
2021/11/02 02:37:46;;;;;;;;;0.00;0.00;;;;;10.21;71.48;99643.38;5081185;28;45461;-82
2021/11/02 02:40:13;;;;;;;;;0.00;0.00;;;;;10.24;70.99;99637.28;5081444;28;45390;-82
2021/11/02 02:42:39;;;;;;;;;0.00;0.00;;;;;10.24;70.90;99634.69;5081419;28;45409;-82
2021/11/02 02:45:07;;;;;;;;;0.00;0.00;;;;;10.10;70.65;99619.16;5081632;28;46209;-81
2021/11/02 02:47:34;;;;;;;;;0.00;0.00;;;;;10.10;70.68;99612.25;5080952;28;45346;-82
2021/11/02 02:50:02;;;;;;;;;0.00;0.00;;;;;9.57;70.55;99524.25;5051386;28;45495;-82
2021/11/02 02:52:29;;;;;;;;;0.00;0.00;;;;;10.14;70.94;99616.53;5043198;28;45399;-82
2021/11/02 02:54:56;;;;;;;;;0.00;0.00;;;;;10.24;70.64;99622.56;5060650;28;46367;-82
2021/11/02 02:57:24;;;;;;;;;0.00;0.00;;;;;10.26;70.76;99619.91;5072968;28;45730;-82
2021/11/02 02:59:51;;;;;;;;;1.00;0.00;;;;;9.87;70.73;99556.06;5082845;28;45439;-82
2021/11/02 03:02:18;;;;;;;;;0.00;0.00;;;;;10.31;70.52;99619.88;5084645;28;45303;-82
2021/11/02 03:04:47;;;;;;;;;0.00;0.00;;;;;10.25;70.38;99613.88;5084424;28;45484;-82
2021/11/02 03:07:14;;;;;;;;;0.00;0.00;;;;;10.07;70.58;99562.84;5084513;28;45463;-82
2021/11/02 03:09:43;;;;;;;;;0.00;0.00;;;;;10.30;70.60;99599.94;5083159;28;45238;-82
2021/11/02 03:12:11;;;;;;;;;0.00;0.00;;;;;9.82;70.66;99539.66;5084737;28;45354;-82
2021/11/02 03:17:24;;;;;;;;;0.00;0.00;;;;;9.98;70.99;99594.13;5084595;28;45371;-82
2021/11/02 03:55:36;;;;;;;;;0.00;0.00;;;;;9.97;71.08;99595.88;5084156;28;45394;-82
2021/11/02 03:58:13;;;;;;;;;0.00;0.00;;;;;9.98;71.23;99604.50;5066306;28;46081;-82
2021/11/02 04:00:59;;;;;;;;;0.00;0.00;;;;;10.14;71.01;99626.94;5083535;28;45500;-82
2021/11/02 04:58:01;;;;;;;;;0.00;0.00;;;;;10.17;71.23;99620.00;5082378;28;45335;-81
2021/11/02 05:06:58;;;;;;;;;0.00;0.00;;;;;9.95;71.14;99609.75;5058158;28;45985;-81
2021/11/02 06:04:31;;;;;;;;;0.00;0.00;;;;;10.06;71.23;99618.34;5081529;28;45386;-79
2021/11/02 06:07:39;;;;;;;;;0.00;0.00;;;;;10.19;71.10;99641.63;5082143;28;45509;-79
2021/11/02 06:29:53;;;;;;;;;1.00;0.00;;;;;9.48;69.80;99603.09;5082447;28;45387;-81
2021/11/02 06:32:27;;;;;;;;;0.00;0.00;;;;;9.75;69.83;99639.34;5058924;28;46305;-81
2021/11/02 06:35:08;;;;;;;;;0.00;0.00;;;;;9.82;69.38;99650.53;5063975;28;45284;-80
2021/11/02 06:43:19;;;;;;;;;0.00;0.00;;;;;9.86;69.11;99663.53;5067747;28;45401;-80
2021/11/02 06:53:59;;;;;;;;;0.00;0.00;;;;;9.66;68.92;99641.97;5081843;28;45496;-81
2021/11/02 07:19:34;;;;;;;;;0.00;0.00;;;;;9.55;69.14;99688.81;5083928;28;45331;-79
2021/11/02 08:48:27;;;;;;;;;0.00;0.00;;;;;9.68;67.81;99729.44;5060081;28;45454;-79
2021/11/02 08:50:53;;;;;;;;;1.50;0.00;;;;;9.84;67.65;99755.41;5041244;28;45512;-77
2021/11/02 08:53:20;;;;;;;;;0.00;0.00;;;;;9.96;67.69;99762.28;5041475;28;45296;-76
2021/11/02 08:55:46;;;;;;;;;0.00;0.00;;;;;10.05;68.12;99782.16;5057007;28;45760;-78
2021/11/02 08:58:12;;;;;;;;;0.00;0.00;;;;;9.92;67.62;99737.16;5058172;28;46145;-79
2021/11/02 09:00:40;;;;;;;;;0.00;0.00;;;;;9.99;67.42;99763.09;5042103;28;45387;-82
2021/11/02 09:03:49;;;;;;;;;0.00;0.00;;;;;10.17;66.95;99784.69;5060231;28;45419;-79
2021/11/02 09:06:17;;;;;;;;;0.00;0.00;;;;;10.10;66.76;99783.00;4975325;28;45663;-80
2021/11/02 09:08:54;;;;;;;;;0.00;0.00;;;;;10.11;66.79;99790.78;5001384;28;47068;-80
2021/11/02 09:11:25;;;;;;;;;0.00;0.00;;;;;10.15;66.93;99773.44;5059712;28;45409;-79
2021/11/02 09:13:52;;;;;;;;;0.00;0.00;;;;;10.07;66.50;99728.41;5059324;28;45224;-79
2021/11/02 09:16:20;;;;;;;;;0.00;0.00;;;;;10.59;66.16;99792.31;5041995;28;45319;-80
2021/11/02 09:18:47;;;;;;;;;0.25;0.00;;;;;10.63;65.88;99769.75;5052766;28;46505;-81
2021/11/02 09:21:15;;;;;;;;;0.00;0.00;;;;;10.71;65.93;99764.44;5051680;28;45479;-81
2021/11/02 09:23:46;;;;;;;;;0.00;0.00;;;;;10.82;65.31;99770.47;5053202;28;45467;-81
2021/11/02 09:26:14;;;;;;;;;0.00;0.00;;;;;11.00;65.59;99779.00;5040610;28;45534;-83
2021/11/02 09:28:41;;;;;;;;;0.00;0.00;;;;;11.03;65.07;99779.81;5060125;28;45342;-81
2021/11/02 09:31:06;;;;;;;;;0.00;0.00;;;;;11.00;64.94;99799.81;5074562;28;45216;-82
2021/11/02 09:33:32;;;;;;;;;0.00;0.00;;;;;10.85;64.54;99767.84;5060753;28;45575;-81
2021/11/02 09:36:01;;;;;;;;;0.00;0.00;;;;;10.87;64.91;99786.03;5063700;28;45610;-81
2021/11/02 09:38:54;;;;;;;;;0.00;0.00;;;;;10.90;64.24;99775.59;5076805;28;45430;-80
2021/11/02 09:41:31;;;;;;;;;0.00;0.00;;;;;11.19;64.32;99792.72;5059520;28;45393;-81
2021/11/02 09:44:24;;;;;;;;;0.00;0.00;;;;;11.35;63.55;99790.81;5068517;28;45471;-81
2021/11/02 09:47:18;;;;;;;;;0.00;0.00;;;;;11.40;63.37;99796.00;5080597;28;45541;-81
2021/11/02 09:49:52;;;;;;;;;0.00;0.00;;;;;11.61;63.14;99802.72;5080058;28;47563;-81
2021/11/02 09:52:42;;;;;;;;;0.00;0.00;;;;;12.07;63.02;99790.03;5082276;28;45485;-80
2021/11/02 09:55:21;;;;;;;;;0.00;0.00;;;;;11.94;61.21;99757.16;5080191;28;45709;-81
2021/11/02 09:58:12;;;;;;;;;0.00;0.00;;;;;12.03;61.60;99796.16;5068227;28;45320;-82
2021/11/02 10:01:08;;;;;;;;;0.00;0.00;;;;;12.02;61.62;99802.25;5085456;28;46382;-82
2021/11/02 10:04:23;;;;;;;;;0.00;0.00;;;;;11.92;61.21;99806.75;5032289;28;45463;-82
2021/11/02 10:06:51;;;;;;;;;0.00;0.00;;;;;11.88;61.97;99810.25;5070258;28;45371;-79
2021/11/02 10:09:38;;;;;;;;;0.00;0.00;;;;;11.79;61.27;99809.47;5082842;28;45575;-78
2021/11/02 10:12:13;;;;;;;;;0.00;0.00;;;;;11.78;61.44;99817.31;5083276;28;46212;-80
2021/11/02 10:14:40;;;;;;;;;0.00;0.00;;;;;11.84;61.54;99809.44;5086463;28;45399;-81
2021/11/02 10:17:25;;;;;;;;;0.00;0.00;;;;;11.91;61.56;99816.28;5088344;28;45354;-80
2021/11/02 10:20:07;;;;;;;;;0.00;0.00;;;;;11.66;61.00;99789.63;5065662;28;45596;-81
2021/11/02 10:22:53;;;;;;;;;0.00;0.00;;;;;11.72;61.08;99820.84;5066658;28;48048;-81
2021/11/02 10:25:40;;;;;;;;;0.00;0.00;;;;;11.74;60.87;99819.13;5081878;28;45354;-79
2021/11/02 10:28:33;;;;;;;;;0.00;0.00;;;;;11.76;61.17;99824.31;5063384;28;45375;-79
2021/11/02 10:31:11;;;;;;;;;0.00;0.00;;;;;11.68;61.10;99781.81;5065171;28;45614;-79
2021/11/02 10:33:42;;;;;;;;;0.00;0.00;;;;;12.06;60.42;99829.19;5082663;28;46390;-80
2021/11/02 10:36:44;;;;;;;;;0.00;0.00;;;;;12.14;60.24;99832.59;5082051;28;45367;-81
2021/11/02 10:39:32;;;;;;;;;0.00;0.00;;;;;11.99;60.35;99837.09;5078132;28;45608;-80
2021/11/02 10:42:28;;;;;;;;;0.00;0.00;;;;;11.78;60.69;99833.84;5084830;28;45282;-80
2021/11/02 10:44:59;;;;;;;;;0.00;0.00;;;;;11.61;60.78;99836.59;5060116;28;46291;-81
2021/11/02 10:47:43;;;;;;;;;0.00;0.00;;;;;11.35;60.74;99832.53;5074839;28;45441;-80
2021/11/02 10:50:12;;;;;;;;;0.00;0.00;;;;;11.31;61.61;99832.56;5073245;28;45419;-78
2021/11/02 10:52:40;;;;;;;;;0.00;0.00;;;;;11.22;61.54;99816.13;5084160;28;45594;-83
2021/11/02 10:55:21;;;;;;;;;0.00;0.00;;;;;11.38;61.87;99829.88;5091951;28;45369;-82
2021/11/02 10:58:11;;;;;;;;;0.00;0.00;;;;;11.43;62.26;99827.25;5073291;28;45292;-83
2021/11/02 11:00:37;;;;;;;;;0.00;0.00;;;;;11.30;62.02;99792.59;5089598;28;45414;-82
2021/11/02 11:03:09;;;;;;;;;0.00;0.00;;;;;11.53;61.98;99822.78;5082608;28;46357;-81
2021/11/02 11:05:35;;;;;;;;;0.00;0.00;;;;;11.60;61.82;99821.84;5064153;28;47282;-82
2021/11/02 11:08:05;;;;;;;;;0.00;0.00;;;;;11.47;61.78;99794.19;5082735;28;45393;-85
2021/11/02 11:10:31;;;;;;;;;0.00;0.00;;;;;11.45;61.42;99794.19;5046364;28;45496;-78
2021/11/02 11:13:14;;;;;;;;;;;;;;;;;;;;;
2021/11/02 11:15:42;;;;;;;;;0.00;0.00;;;;;11.85;61.56;99837.22;5081129;28;74306;-80
2021/11/02 11:18:33;;;;;;;;;0.00;0.00;;;;;10.79;61.65;99644.66;5067128;28;45410;-80
2021/11/02 11:21:19;;;;;;;;;0.00;0.00;;;;;10.82;61.86;99649.81;5082437;28;45697;-84
2021/11/02 11:24:10;;;;;;;;;1.00;0.00;;;;;10.99;61.72;99680.88;5085373;28;45516;-80
2021/11/02 11:27:06;;;;;;;;;0.00;0.00;;;;;11.99;61.36;99813.59;5084654;28;46322;-80
2021/11/02 11:29:35;;;;;;;;;0.00;0.00;;;;;11.63;60.77;99722.75;5047515;28;45324;-83
2021/11/02 11:32:03;;;;;;;;;0.00;0.00;;;;;12.24;61.09;99800.28;5062192;28;45296;-80
2021/11/02 11:34:42;;;;;;;;;0.00;0.00;;;;;11.62;60.25;99670.66;5082843;28;45413;-80
2021/11/02 11:37:11;;;;;;;;;0.00;0.00;;;;;12.43;60.51;99807.84;5063041;28;47746;-80
2021/11/02 11:39:38;;;;;;;;;0.00;0.00;;;;;12.43;60.09;99791.34;5080229;28;45350;-82
2021/11/02 11:42:03;;;;;;;;;0.00;0.00;;;;;12.52;60.22;99805.13;5059632;28;45499;-81
2021/11/02 11:44:30;;;;;;;;;0.00;0.00;;;;;12.53;59.54;99791.16;5064043;28;45450;-81
2021/11/02 11:47:06;;;;;;;;;0.00;0.00;;;;;12.59;59.10;99795.44;5076896;27;48356;-81
2021/11/02 11:49:35;;;;;;;;;0.00;0.00;;;;;12.44;59.06;99762.59;5057132;28;45533;-80
2021/11/02 11:52:04;;;;;;;;;0.00;0.00;;;;;12.39;59.29;99744.41;5070374;28;45300;-82
2021/11/02 11:54:31;;;;;;;;;0.00;0.00;;;;;12.65;59.11;99779.69;5083065;28;45544;-83
2021/11/02 11:57:02;;;;;;;;;0.00;0.00;;;;;12.73;59.00;99786.53;5076957;28;46737;-82
2021/11/02 11:59:35;;;;;;;;;0.00;0.00;;;;;12.69;59.05;99769.19;5070436;28;45343;-81
2021/11/02 12:02:14;;;;;;;;;0.00;0.00;;;;;12.53;58.42;99735.50;5083386;28;45161;-81
2021/11/02 12:04:53;;;;;;;;;0.25;0.25;;;;;12.77;58.65;99773.41;5066935;28;45652;-83
2021/11/02 12:07:35;;;;;;;;;0.25;0.00;;;;;12.65;59.04;99748.34;5062551;28;46441;-83
2021/11/02 12:10:11;;;;;;;;;0.00;0.00;;;;;12.63;58.20;99755.34;5063077;28;45492;-81
2021/11/02 12:12:43;;;;;;;;;0.00;0.00;;;;;12.55;58.64;99757.22;5080421;28;45547;-84
2021/11/02 12:15:20;;;;;;;;;0.00;0.00;;;;;12.64;58.95;99780.56;5078808;28;45383;-80
2021/11/02 12:17:56;;;;;;;;;0.00;0.00;;;;;12.12;58.93;99711.72;5065735;28;46185;-80
2021/11/02 12:20:31;;;;;;;;;0.00;0.00;;;;;12.49;59.08;99772.94;5062972;28;45491;-82
2021/11/02 12:23:17;;;;;;;;;0.00;0.00;;;;;11.52;58.95;99634.25;5061677;28;45534;-80
2021/11/02 12:25:56;;;;;;;;;0.00;0.00;;;;;12.07;58.58;99732.66;5061083;28;45447;-76
2021/11/02 12:28:45;;;;;;;;;0.00;0.00;;;;;12.25;59.04;99767.22;5075430;28;47098;-80
2021/11/02 12:31:17;;;;;;;;;0.00;0.00;;;;;12.20;58.83;99755.97;5079725;28;45394;-79
2021/11/02 12:34:22;;;;;;;;;0.00;0.00;;;;;11.99;59.48;99729.28;5062258;28;45298;-82
2021/11/02 12:36:59;;;;;;;;;0.00;0.00;;;;;12.39;59.71;99762.66;5035223;28;45472;-82
2021/11/02 12:39:41;;;;;;;;;0.00;0.00;;;;;12.22;59.35;99741.19;5082569;28;45681;-83
2021/11/02 12:42:33;;;;;;;;;0.00;0.00;;;;;11.43;59.20;99604.88;5080048;28;46204;-83
2021/11/02 12:45:19;;;;;;;;;0.00;0.00;;;;;11.81;59.27;99653.00;5076431;28;45292;-82
2021/11/02 12:48:13;;;;;;;;;0.00;0.00;;;;;12.05;59.63;99679.63;5075604;27;45475;-83
2021/11/02 12:53:56;;;;;;;;;0.00;0.00;;;;;11.93;59.36;99620.69;5078982;28;45388;-81
2021/11/02 12:56:36;;;;;;;;;0.00;0.00;;;;;12.87;58.85;99754.97;5061437;28;45243;-80
2021/11/02 12:59:37;;;;;;;;;0.00;0.00;;;;;12.27;58.49;99645.41;5081644;28;45492;-80
2021/11/02 13:02:40;;;;;;;;;0.00;0.00;;;;;12.07;58.45;99612.66;5063805;28;45521;-80
2021/11/02 13:06:09;;;;;;;;;0.00;0.00;;;;;12.07;58.14;99609.22;5062912;28;45674;-80
2021/11/02 13:09:15;;;;;;;;;0.00;0.00;;;;;11.91;58.07;99585.94;4992355;28;45389;-81
2021/11/02 13:11:51;;;;;;;;;0.00;0.00;;;;;11.93;58.33;99572.88;4984627;28;45544;-79
2021/11/02 13:14:34;;;;;;;;;0.00;0.00;;;;;12.98;57.86;99741.72;5044671;28;45436;-79
2021/11/02 13:17:05;;;;;;;;;0.75;0.00;;;;;13.00;58.04;99742.56;5082058;28;45380;-81
2021/11/02 13:19:35;;;;;;;;;0.00;0.00;;;;;12.98;57.52;99732.16;5074358;28;45385;-81
2021/11/02 13:22:19;;;;;;;;;0.00;0.00;;;;;12.73;58.01;99693.41;5081203;28;45509;-81
2021/11/02 13:25:32;;;;;;;;;0.00;0.00;;;;;12.91;57.46;99740.97;5081767;28;46400;-82
2021/11/02 13:27:57;;;;;;;;;0.00;0.00;;;;;12.74;57.83;99725.59;5048078;28;45351;-81
2021/11/02 13:30:27;;;;;;;;;0.25;0.00;;;;;12.88;57.88;99746.25;5061935;28;45935;-81
2021/11/02 13:33:02;;;;;;;;;0.00;0.00;;;;;12.45;57.40;99669.50;5077347;28;45521;-81
2021/11/02 13:35:56;;;;;;;;;0.25;0.00;;;;;12.90;56.70;99731.44;5080903;28;45951;-82
2021/11/02 13:38:26;;;;;;;;;0.00;0.00;;;;;12.86;56.32;99729.75;5046843;28;45485;-82
2021/11/02 13:40:57;;;;;;;;;0.00;0.00;;;;;12.38;56.71;99673.97;5080743;28;45461;-81
2021/11/02 13:43:30;;;;;;;;;0.00;0.00;;;;;12.75;56.67;99719.47;5079578;28;45643;-81
2021/11/02 13:45:56;;;;;;;;;0.00;0.00;;;;;12.79;56.86;99724.63;5060140;28;48399;-81
2021/11/02 13:48:22;;;;;;;;;0.00;0.00;;;;;12.86;56.47;99721.94;5081173;28;45398;-82
2021/11/02 13:50:48;;;;;;;;;0.00;0.00;;;;;12.69;56.05;99696.94;5078582;28;45469;-81
2021/11/02 13:53:17;;;;;;;;;0.00;0.00;;;;;12.68;55.75;99684.75;5080817;28;45340;-80
2021/11/02 13:55:42;;;;;;;;;0.00;0.00;;;;;12.76;56.22;99700.31;5061848;28;46166;-81
2021/11/02 13:58:08;;;;;;;;;0.00;0.00;;;;;12.34;55.50;99633.16;5066362;28;45319;-80
2021/11/02 14:00:35;;;;;;;;;0.00;0.00;;;;;12.87;56.37;99707.97;5081312;28;45919;-80
2021/11/02 14:03:04;;;;;;;;;0.00;0.00;;;;;12.83;56.40;99699.31;5084005;28;45402;-80
2021/11/02 14:05:30;;;;;;;;;0.00;0.00;;;;;12.63;56.50;99663.97;5080539;28;45525;-80
2021/11/02 14:07:57;;;;;;;;;0.00;0.00;;;;;12.79;56.56;99679.38;5083565;28;45538;-81
2021/11/02 14:10:32;;;;;;;;;0.00;0.00;;;;;12.78;56.93;99668.03;5081843;28;45418;-81
2021/11/02 14:12:57;;;;;;;;;0.00;0.00;;;;;12.95;56.57;99711.28;5057704;28;45632;-81
2021/11/02 14:15:29;;;;;;;;;0.00;0.00;;;;;12.96;57.02;99710.44;5076313;28;46337;-82
2021/11/02 14:18:00;;;;;;;;;1.50;0.00;;;;;12.90;56.90;99721.81;5077137;28;45523;-81
2021/11/02 14:20:41;;;;;;;;;0.00;0.00;;;;;12.78;56.46;99703.75;5064064;28;44754;-80
2021/11/02 14:23:31;;;;;;;;;0.00;0.00;;;;;12.64;56.57;99690.94;5069263;28;45706;-81
2021/11/02 14:26:34;;;;;;;;;0.00;0.00;;;;;12.82;56.75;99697.59;5060530;28;46987;-82
2021/11/02 14:29:03;;;;;;;;;0.00;0.00;;;;;12.86;56.71;99686.19;5083193;28;45324;-82
2021/11/02 14:31:34;;;;;;;;;0.00;0.00;;;;;13.14;56.65;99710.97;5067158;28;45430;-82
2021/11/02 14:34:01;;;;;;;;;0.00;0.00;;;;;13.22;56.26;99690.78;5061744;28;45362;-83
2021/11/02 14:36:38;;;;;;;;;0.00;0.00;;;;;13.20;56.05;99671.66;5054513;28;45465;-83
2021/11/02 14:39:04;;;;;;;;;0.00;0.00;;;;;13.11;56.14;99653.56;5060238;28;45429;-84
2021/11/02 14:41:33;;;;;;;;;0.00;0.00;;;;;13.39;56.09;99700.06;5062971;28;45379;-83
2021/11/02 14:44:14;;;;;;;;;0.00;0.00;;;;;13.34;55.72;99707.09;5064024;28;45535;-83
2021/11/02 14:46:43;;;;;;;;;0.00;0.00;;;;;12.98;55.88;99668.56;5043444;28;46767;-83
2021/11/02 14:49:29;;;;;;;;;0.00;0.00;;;;;13.06;55.94;99692.81;5061142;28;45426;-83
2021/11/02 14:52:05;;;;;;;;;0.00;0.00;;;;;12.67;56.56;99639.53;5057525;28;45628;-82
2021/11/02 14:55:02;;;;;;;;;0.00;0.00;;;;;12.40;56.37;99618.22;5049219;28;45573;-83
2021/11/02 14:57:28;;;;;;;;;0.00;0.00;;;;;12.89;56.37;99709.66;5055087;28;46108;-85
2021/11/02 14:59:57;;;;;;;;;0.00;0.00;;;;;12.32;56.59;99640.13;5040148;28;45616;-84
2021/11/02 15:02:35;;;;;;;;;0.00;0.00;;;;;12.77;56.84;99708.13;5061816;28;45322;-84
2021/11/02 15:05:06;;;;;;;;;0.00;0.00;;;;;12.71;56.93;99709.97;5075096;28;45266;-81
2021/11/02 15:07:34;;;;;;;;;0.00;0.00;;;;;12.47;57.34;99670.34;5063031;28;45449;-82
2021/11/02 15:10:08;;;;;;;;;0.00;0.00;;;;;12.65;57.50;99710.94;5051350;28;45491;-82
2021/11/02 15:12:34;;;;;;;;;0.00;0.00;;;;;12.64;57.58;99711.81;5060875;28;45568;-83
2021/11/02 15:15:02;;;;;;;;;0.00;0.00;;;;;12.59;57.85;99701.44;5059681;28;45428;-82
2021/11/02 15:17:27;;;;;;;;;0.00;0.00;;;;;12.45;57.90;99686.03;5056604;28;45542;-82
2021/11/02 15:19:53;;;;;;;;;0.00;0.00;;;;;12.27;58.09;99661.06;5061416;28;46617;-82
2021/11/02 15:22:22;;;;;;;;;0.00;0.00;;;;;12.03;58.29;99629.22;5055203;28;45331;-85
2021/11/02 15:25:02;;;;;;;;;0.00;0.00;;;;;12.32;58.13;99684.47;5047536;28;45375;-82
2021/11/02 15:27:32;;;;;;;;;0.00;0.00;;;;;12.24;58.21;99675.03;5051699;28;46124;-82
2021/11/02 15:30:08;;;;;;;;;0.00;0.00;;;;;12.33;58.04;99697.50;5064454;28;45496;-82
2021/11/02 15:32:54;;;;;;;;;0.00;0.00;;;;;12.15;57.73;99678.66;5077766;28;45711;-82
2021/11/02 15:35:28;;;;;;;;;0.00;0.00;;;;;12.19;57.98;99702.91;5084908;28;45433;-81
2021/11/02 15:37:57;;;;;;;;;0.00;0.00;;;;;11.94;57.60;99655.47;5069405;28;45567;-84
2021/11/02 15:40:39;;;;;;;;;0.00;0.00;;;;;11.66;57.99;99635.81;5085199;28;45569;-82
2021/11/02 15:43:20;;;;;;;;;0.00;0.00;;;;;11.08;58.40;99541.91;5078320;28;45575;-81
2021/11/02 15:46:25;;;;;;;;;0.00;0.00;;;;;11.57;58.00;99631.59;5074305;28;45384;-80
2021/11/02 15:48:56;;;;;;;;;0.00;0.00;;;;;11.96;58.54;99685.84;5067376;28;48498;-80
2021/11/02 15:51:38;;;;;;;;;;;;;;;;;;;;;
2021/11/02 15:54:09;;;;;;;;;0.00;0.00;;;;;11.12;58.49;99567.06;5079682;28;68496;-81
2021/11/02 15:56:34;;;;;;;;;0.00;0.00;;;;;11.55;58.87;99619.47;5080604;28;45521;-81
2021/11/02 15:59:05;;;;;;;;;0.00;0.00;;;;;11.95;58.62;99684.13;5080463;28;46163;-82
2021/11/02 16:01:49;;;;;;;;;0.00;0.00;;;;;11.48;58.45;99605.66;5078992;28;45378;-81
2021/11/02 16:04:19;;;;;;;;;0.00;0.00;;;;;11.90;58.75;99675.50;5081800;28;45441;-81
2021/11/02 16:07:11;;;;;;;;;0.00;0.00;;;;;11.74;58.56;99657.47;5064902;28;45316;-82
2021/11/02 16:09:44;;;;;;;;;0.00;0.00;;;;;11.82;58.84;99679.97;5082166;28;45521;-87
2021/11/02 16:13:05;;;;;;;;;;;;;;;;;;;;;
2021/11/02 16:15:40;;;;;;;;;0.00;0.00;;;;;11.09;59.19;99586.16;5082721;28;67972;-89
2021/11/02 16:18:22;;;;;;;;;0.00;0.00;;;;;11.54;59.57;99649.88;5078642;28;45524;-82
2021/11/02 16:20:48;;;;;;;;;0.00;0.00;;;;;11.33;59.72;99619.75;5075967;28;46158;-81
2021/11/02 16:23:15;;;;;;;;;0.00;0.00;;;;;11.72;59.92;99669.63;5079838;28;46133;-81
2021/11/02 16:25:43;;;;;;;;;0.00;0.00;;;;;11.74;60.13;99672.22;5082398;28;46047;-80
2021/11/02 16:28:11;;;;;;;;;0.00;0.00;;;;;11.74;60.59;99667.88;5074806;28;45493;-79
2021/11/02 16:30:43;;;;;;;;;0.00;0.00;;;;;11.64;60.33;99656.69;5064509;28;47052;-81
2021/11/02 16:33:10;;;;;;;;;0.50;0.50;;;;;11.64;60.35;99653.25;5079488;28;45508;-81
2021/11/02 16:35:48;;;;;;;;;0.00;0.00;;;;;11.47;60.48;99630.00;5080654;28;45547;-81
2021/11/02 16:38:18;;;;;;;;;0.00;0.00;;;;;11.45;60.96;99632.63;5076751;28;45508;-81
2021/11/02 16:41:05;;;;;;;;;0.00;0.00;;;;;11.70;60.93;99665.34;5079519;27;45481;-80
2021/11/02 16:43:37;;;;;;;;;0.00;0.00;;;;;11.48;61.09;99626.50;5061975;28;45483;-80
2021/11/02 16:46:09;;;;;;;;;0.00;0.00;;;;;11.73;61.25;99665.31;5080264;28;45346;-81
2021/11/02 16:49:19;;;;;;;;;0.25;0.25;;;;;11.75;61.19;99663.50;5063081;28;45585;-84
2021/11/02 16:52:27;;;;;;;;;0.00;0.00;;;;;10.91;60.87;99529.97;5072558;28;48252;-82
2021/11/02 16:55:05;;;;;;;;;0.00;0.00;;;;;10.77;60.92;99504.09;5097219;27;44828;-82
2021/11/02 16:57:31;;;;;;;;;0.00;0.00;;;;;11.28;61.18;99586.78;5092391;28;45380;-81
2021/11/02 17:00:04;;;;;;;;;0.00;0.00;;;;;10.92;61.43;99538.63;5094652;28;44803;-81
2021/11/02 17:02:45;;;;;;;;;0.00;0.00;;;;;11.00;61.71;99542.03;5086985;28;45416;-84
2021/11/02 17:05:15;;;;;;;;;0.00;0.00;;;;;11.33;61.80;99589.34;5078490;28;45373;-83
2021/11/02 17:07:43;;;;;;;;;0.00;0.00;;;;;11.63;61.68;99636.75;5079339;28;45306;-84
2021/11/02 17:10:17;;;;;;;;;0.00;0.00;;;;;11.61;62.00;99643.72;5081281;28;45909;-83
2021/11/02 17:12:53;;;;;;;;;0.00;0.00;;;;;11.31;61.98;99604.16;5082311;28;46285;-84
2021/11/02 17:15:36;;;;;;;;;0.00;0.00;;;;;10.94;61.99;99540.34;5068208;28;45575;-83
2021/11/02 17:21:09;;;;;;;;;0.00;0.00;;;;;11.49;62.12;99654.31;5064218;28;45464;-84